Weather observations for the past three days for
Graham, Graham Municipal Airport
Metric (Imperial)
Date Time (cdt) Wind (kph) Vis. (km) Weather Sky Cond. Temperature (ºC) Relative Humidity Wind Chill (°C) Heat Index (°C) Pressure Precipitation (cm)
Air Dwpt 6 hour altimeter (cm) sea level (mb) 1 hr 3 hr 6 hr
Max. Min.
03 00:15 S 7 6.44 Fair with Haze CLR 13.3 9.2 76% 76.48 0.0
02 23:55 SW 6 6.44 Fair with Haze CLR 13.3 9 75% 76.45 0.0
02 23:35 SW 7 6.44 Fair with Haze CLR 14.2 8.6 69% 76.45 0.0
02 23:15 S 7 8.05 Fair with Haze CLR 15 8.3 64% 76.45 0.0
02 22:55 S 6 6.44 Fair with Haze CLR 15.9 8.2 60% 76.48 0.0
02 22:35 S 7 6.44 Fair with Haze CLR 16 8.2 60% 76.45 0.0
02 22:15 S 6 11.27 Fair CLR 16.2 8.4 60% 76.45 0.0
02 21:55 S 6 11.27 Fair CLR 16.4 8.1 58% 76.43 0.0
02 21:35 S 6 11.27 Fair CLR 16.9 8.2 57% 76.43 0.0
02 21:15 SE 7 14.48 Fair CLR 17 8.8 59% 76.43 0.0
02 20:55 SE 7 11.27 Fair CLR 18.4 8.6 53% 76.4 0.0
02 20:35 SE 7 4.83 Fair with Haze CLR 19.3 8.3 49% 76.4 0.0
02 20:15 SE 6 8.05 Fair with Haze CLR 20.1 8.3 47% 76.38 0.0
02 19:55 S 6 8.05 Fair with Haze CLR 21.9 6.6 37% 76.38 0.0
02 19:35 S 6 12.87 Fair CLR 22.5 7.5 38% 76.38 0.0
02 19:15 Calm 12.87 Fair CLR 23.2 6.2 33% 76.38 0.0
02 18:55 Vrbl 7 12.87 A Few Clouds FEW100 23.6 5.1 24.5 21.5 30% 76.38 0.0
02 18:15 S 9 14.48 Fair CLR 24 5.1 30% 25 76.38 0.0
02 17:55 SW 7 16.09 A Few Clouds FEW095 24.2 6 31% 25 76.38 0.0
02 17:35 Calm 16.09 A Few Clouds FEW085 23.5 5.4 31% 76.4 0.0
02 17:15 W 11 16.09 A Few Clouds FEW080 24.4 5.1 29% 25 76.4 0.0
02 16:55 Vrbl 7 16.09 Mostly Cloudy BKN075 BKN090 23.8 6.4 33% 76.43 0.0
02 16:35 Vrbl 6 16.09 Mostly Cloudy SCT075 BKN090 23.8 6.6 33% 76.43 0.0
02 16:15 W 7 16.09 Partly Cloudy SCT075 23.8 6.3 32% 76.45 0.0
02 15:55 Calm 16.09 A Few Clouds FEW070 23.6 6.7 34% 76.48 0.0
02 15:35 Calm 16.09 Partly Cloudy SCT070 23 6.8 35% 76.5 0.0
02 15:15 Calm 16.09 Partly Cloudy SCT070 23.4 6.7 34% 76.5 0.0
02 14:55 Calm 14.48 Partly Cloudy SCT070 22.7 7.2 37% 76.53 0.0
02 14:35 Calm 16.09 Fair CLR 22.8 6.6 35% 76.53 0.0
02 14:15 W 7 16.09 A Few Clouds FEW070 22.6 6.9 36% 76.56 0.0
02 13:55 Vrbl 6 16.09 Fair CLR 22.2 6.2 36% 76.58 0.0
02 13:35 W 11 16.09 Fair CLR 22.4 6.7 36% 76.58 0.0
02 13:15 Calm 16.09 Fair CLR 22 6.8 38% 76.61 0.0
02 12:55 NW 9 16.09 Fair CLR 21.8 7 22.3 6 39% 76.63 0.0
02 12:35 NW 13 16.09 A Few Clouds FEW060 22 7 38% 76.66 0.0
02 12:15 Vrbl 9 16.09 Fair CLR 21.5 7.3 40% 76.68 0.0
02 11:55 Vrbl 6 16.09 Fair CLR 21.1 7.2 41% 76.68 0.0
02 11:35 W 11 16.09 Fair CLR 20.8 7 41% 76.68 0.0
02 11:15 W 13 16.09 Fair CLR 20.3 8.1 46% 76.68 0.0
02 10:55 Vrbl 6 14.48 Fair CLR 19.4 10.4 56% 76.68 0.0
02 10:35 NW 7 16.09 Fair CLR 18.9 11 60% 76.68 0.0
02 10:15 Vrbl 6 14.48 Fair CLR 17.5 11.2 67% 76.68 0.0
02 09:55 Calm 16.09 Fair CLR 15.9 11 73% 76.68 0.0
02 09:35 Calm 14.48 Fair CLR 14.9 11 78% 76.68 0.0
02 09:15 Calm 16.09 Fair CLR 13.5 10.8 84% 76.68 0.0
02 08:55 Calm 14.48 Fair CLR 12 11.1 94% 76.66 0.0
02 08:35 Calm 14.48 Fair CLR 10.9 10.6 98% 76.66 0.0
02 08:15 Calm 12.87 Fair CLR 9.8 9.7 99% 76.63 0.0
02 07:55 Calm 11.27 Fair CLR 9 9 100% 76.63 0.0
02 07:35 Calm 11.27 Fair CLR 7.5 7.5 100% 76.61 0.0
02 07:15 Calm 11.27 Fair CLR 6.7 6.7 100% 76.58 0.0
02 06:55 Calm 1.61 Fog/Mist CLR 6.5 6.3 11.1 6.3 99% 76.58 0.0
02 06:35 Calm 11.27 Fair CLR 6.3 6.2 99% 76.56 0.0
02 06:15 Calm 14.48 Fair CLR 6.4 6.2 99% 76.53 0.0
02 05:55 Calm 14.48 Fair CLR 6.8 6.7 99% 76.5 0.0
02 05:35 Calm 12.87 Fair CLR 6.9 6.8 99% 76.5 0.0
02 05:15 Calm 14.48 Fair CLR 7.4 7.3 99% 76.48 0.0
02 04:55 Calm 12.87 Fair CLR 7.2 7 99% 76.48 0.0
02 04:35 Calm 14.48 Fair CLR 7.2 7 99% 76.48 0.0
02 04:15 Calm 12.87 Fair CLR 7.7 7.6 99% 76.48 0.0
02 03:55 Calm 12.87 Fair CLR 7.8 7.7 99% 76.45 0.0
02 03:35 E 6 11.27 Fair CLR 8.1 8 99% 76.48 0.0
02 03:15 E 6 12.87 Fair CLR 8.5 8.4 99% 76.48 0.0
02 02:55 Calm 14.48 Fair CLR 9 8.8 99% 76.48 0.0
02 02:35 Calm 12.87 Fair CLR 9.1 8.9 99% 76.48 0.0
02 02:15 Calm 12.87 Fair CLR 9.5 9.3 99% 76.48 0.0
02 01:55 Calm 14.48 Fair CLR 9.7 9.4 98% 76.48 0.0
02 01:35 Calm 14.48 Fair CLR 10 9.7 98% 76.5 0.0
02 01:15 Calm 16.09 Fair CLR 10.5 10.2 98% 76.48 0.0
02 00:55 Calm 14.48 Fair CLR 10.5 10.2 17.1 10.4 98% 76.45 0.0
02 00:35 Calm 14.48 Fair CLR 10.7 10.4 98% 76.45 0.0
02 00:15 E 6 16.09 Fair CLR 11.3 10.9 97% 76.45 0.0
01 23:55 E 6 16.09 Fair CLR 12.2 11.6 96% 76.45 0.0
01 23:35 Calm 16.09 Fair CLR 12.6 12 96% 76.45 0.0
01 23:15 Calm 16.09 Fair CLR 12.6 11.9 96% 76.43 0.0
01 22:55 Calm 16.09 Mostly Cloudy BKN160 13.1 12.3 95% 76.43 0.0
01 22:35 Calm 16.09 Overcast FEW055 OVC160 13.2 12 93% 76.43 0.0
01 22:15 Calm 16.09 Overcast FEW055 OVC160 13.6 12.3 92% 76.4 0.0
01 21:55 SE 6 16.09 Overcast BKN060 BKN160 OVC180 13.7 12.3 91% 76.38 0.0
01 21:35 Calm 16.09 Mostly Cloudy FEW060 BKN160 13.7 12.2 91% 76.38 0.0
01 21:15 Calm 16.09 Mostly Cloudy FEW140 BKN160 14.5 11.8 84% 76.35 0.0
01 20:55 SE 6 16.09 Mostly Cloudy SCT110 BKN150 14.8 12.2 85% 76.33 0.0
01 20:35 Calm 14.48 Overcast SCT110 OVC150 14.7 12.3 86% 76.3 0.0
01 20:15 Calm 16.09 Mostly Cloudy SCT140 BKN170 15.9 10.7 71% 76.3 0.0
01 19:55 Calm 16.09 A Few Clouds FEW170 16.3 10.1 67% 76.28 0.0
01 19:35 Calm 14.48 Partly Cloudy SCT150 17 10.2 64% 76.25 0.0
01 19:15 Calm 14.48 Overcast OVC150 16.9 10.1 64% 76.23 0.0
01 18:55 NE 7 16.09 Mostly Cloudy BKN160 17 9.7 18 16.1 62% 76.2 0.0
01 18:35 NE 9 16.09 Partly Cloudy SCT160 17.4 9.7 61% 76.2 0.0
01 18:15 NE 7 16.09 Fair CLR 17.5 9.9 61% 76.17 0.0
01 17:55 NE 7 16.09 Fair CLR 17.2 9.7 62% 76.17 0.0
01 17:35 NE 9 16.09 Fair CLR 17.1 9.1 60% 76.17 0.0
01 17:15 Vrbl 7 14.48 A Few Clouds FEW310 17.3 9.6 61% 76.17 0.0
01 16:55 Vrbl 11 11.27 A Few Clouds FEW041 17.3 9.3 60% 76.17 0.0
01 16:35 NE 11 16.09 Fair CLR 17.1 8.9 59% 76.17 0.0
01 16:15 Vrbl 11 16.09 A Few Clouds FEW300 17.3 9.3 60% 76.2 0.0
01 15:55 E 13 16.09 A Few Clouds FEW300 17.3 9.7 61% 76.2 0.0
01 15:35 Vrbl 7 16.09 Fair CLR 17 9.6 62% 76.23 0.0
01 15:15 Vrbl 6 16.09 A Few Clouds FEW090 16.9 9.4 62% 76.28 0.0
01 14:55 NE 7 16.09 Overcast OVC090 16.6 9.3 62% 76.28 0.0
01 14:35 NE 9 16.09 Overcast FEW038 OVC090 16.4 9.1 62% 76.3 0.0
01 14:15 NE 6 16.09 Overcast FEW038 OVC090 16.2 9.2 63% 76.3 0.0
01 13:55 NE 13 16.09 Overcast FEW035 OVC085 16.1 8.6 61% 76.28 0.0
01 13:35 NE 13 16.09 Mostly Cloudy SCT035 BKN085 16.2 9.3 64% 76.3 0.0
01 12:55 E 17 G 26 16.09 Mostly Cloudy FEW031 BKN130 16.3 9.4 16.4 12.8 64% 76.25 0.0
01 12:35 NE 17 G 30 16.09 Mostly Cloudy FEW030 BKN130 16 10 68% 76.25 0.0
01 12:15 NE 17 16.09 Mostly Cloudy BKN130 16.2 11.1 72% 76.28 0.0
01 11:55 NE 15 16.09 Mostly Cloudy BKN130 15.1 10.7 75% 76.3 0.0
01 11:35 NE 15 16.09 Mostly Cloudy FEW022 BKN130 15.1 10.6 75% 76.33 0.0
01 11:15 E 15 16.09 Overcast FEW022 OVC120 15.1 10.6 75% 76.33 0.0
01 10:55 Vrbl 11 16.09 Overcast OVC130 15.2 10.7 75% 76.3 0.0
01 10:35 E 13 16.09 Mostly Cloudy BKN130 14.9 10.2 74% 76.28 0.0
01 10:15 NE 15 16.09 Mostly Cloudy BKN130 14.5 11.5 82% 76.28 0.0
01 09:55 NE 15 16.09 Overcast OVC120 13.8 11.8 88% 76.23 0.0
01 09:35 NE 11 16.09 Overcast OVC120 13.6 12.2 91% 76.25 0.0
01 09:15 NE 9 16.09 Overcast OVC120 13.6 12.3 92% 76.28 0.0
01 08:55 NE 11 14.48 Overcast FEW090 OVC120 13.3 12.2 93% 76.25 0.0
01 08:35 Calm 16.09 Overcast OVC130 13 11.7 92% 76.3 0.0
01 08:15 NE 9 16.09 Overcast OVC140 12.8 11.4 91% 76.2 0.0
01 07:55 Calm 12.87 Overcast FEW030 SCT055 OVC130 12.8 11.4 91% 76.23 0.0
01 07:35 Calm 16.09 Overcast FEW030 BKN055 OVC140 12.9 11.3 90% 76.23 0.0
01 07:15 NE 6 16.09 Overcast FEW050 OVC140 12.9 11.3 90% 76.2 0.0
01 06:55 NE 7 14.48 Mostly Cloudy FEW042 SCT080 BKN160 13.1 11.3 14.4 13.1 89% 76.17 0.0
01 06:35 Vrbl 7 16.09 Mostly Cloudy FEW042 SCT050 BKN170 13.1 11.5 90% 76.17 0.0
01 06:15 NE 11 16.09 Mostly Cloudy SCT038 BKN160 13.2 11.9 92% 76.1 0.0
01 05:55 NE 7 16.09 Overcast OVC038 13.5 11.9 90% 76.15 0.0
01 05:35 NE 6 16.09 Overcast OVC038 13.5 12.1 91% 76.17 0.0
01 05:15 NE 6 16.09 Overcast SCT037 OVC070 13.6 12.4 93% 76.17 0.0
01 04:55 NE 6 16.09 Overcast FEW040 OVC070 13.8 12.8 94% 76.17 0.0
01 04:35 Calm 16.09 Overcast BKN040 OVC070 13.9 12.7 93% 76.2 0.0
01 04:15 NE 6 16.09 Overcast OVC040 14 12.7 92% 76.17 0.0
01 03:55 Calm 16.09 Overcast OVC047 14.1 12.8 92% 76.17 0.0
01 03:35 Calm 16.09 Overcast OVC047 14.1 12.7 91% 76.17 0.0
01 03:15 Calm 16.09 Overcast OVC043 14.2 12.7 91% 76.17 0.0
01 02:55 E 6 16.09 Overcast OVC040 14.2 12.8 91% 76.15 0.0
01 02:35 Calm 16.09 Overcast OVC039 14.3 12.7 90% 76.17 0.0
01 02:15 NE 9 16.09 Overcast OVC040 14.3 12.7 90% 76.12 0.0
01 01:55 NE 9 16.09 Overcast OVC041 14.4 12.8 90% 76.17 0.0
01 01:35 NE 6 16.09 Overcast OVC040 14.4 12.8 90% 76.23 0.0
01 01:15 NE 7 16.09 Overcast OVC039 14.3 12.7 90% 76.23 0.0
01 00:55 NE 7 16.09 Overcast OVC035 14.4 12.4 15 14.1 88% 76.23 0.0 0.03
01 00:35 NE 9 16.09 Overcast OVC035 14.4 12.4 88% 76.23 0.0
01 00:15 NE 7 16.09 Overcast OVC033 14.4 12.6 89% 76.25 0.0
30 23:55 NE 13 16.09 Overcast OVC030 14.2 12.8 91% 76.23 0.0 0.03
30 23:35 Vrbl 9 12.87 Overcast OVC029 14.2 13.2 94% 76.23 0.0 0.03
30 23:15 NE 7 12.87 Light Rain OVC030 14.4 13.5 94% 76.2 0.0 0.03
30 22:55 NE 6 16.09 Overcast OVC029 14.6 13.5 93% 76.23 0.0
30 22:35 Calm 12.87 Light Rain FEW021 OVC029 14.8 13.8 94% 76.23 0.0
30 22:15 Calm 14.48 Overcast SCT022 OVC030 14.9 14 94% 76.2 0.0
30 21:55 Calm 16.09 Overcast SCT023 OVC031 15 13.5 91% 76.17 0.0
30 21:35 Calm 16.09 Overcast OVC031 14.9 13.5 91% 76.15 0.0
30 21:15 Calm 16.09 Overcast SCT023 OVC029 14.9 13.3 90% 76.1 0.0
30 20:55 NE 9 16.09 Overcast OVC025 14.7 13.6 93% 76.02 0.0
30 20:35 NE 7 16.09 Overcast OVC025 14.7 13.8 94% 76.05 0.0
30 20:15 N 9 11.27 Light Rain SCT016 OVC027 14.9 13.9 94% 76.1 0.0
30 19:55 Calm 11.27 Light Rain BKN017 OVC025 14.9 13.8 93% 76.07 0.0
30 19:35 N 6 11.27 Light Rain BKN017 OVC025 14.9 13.8 93% 76.07 0.0
30 19:15 Calm 14.48 Overcast BKN014 BKN020 BKN025 OVC034 14.8 13.5 92% 76.05 0.0
30 18:55 E 9 9.66 Light Rain Fog/Mist SCT015 OVC025 15 13.3 17 15 90% 76.02 0.0
30 18:35 NE 13 9.66 Light Rain FEW011 OVC020 15.6 12.9 84% 76.05 0.0
30 18:15 NE 9 14.48 Overcast OVC022 16.1 12.9 81% 76.05 0.0
30 17:55 E 6 14.48 Overcast OVC020 16.2 13 81% 75.97 0.0
30 17:35 Calm 14.48 Overcast OVC020 16.3 13.1 81% 76 0.0
30 17:15 NE 7 16.09 Overcast OVC021 16.3 12.9 80% 76.02 0.0
30 16:55 NE 7 16.09 Overcast OVC019 16.3 12.9 80% 76 0.0
30 16:35 Calm 16.09 Overcast OVC019 16.5 13 80% 76 0.0
30 16:15 NE 13 16.09 Overcast OVC019 16.5 13.1 80% 75.97 0.0
30 15:55 NE 9 16.09 Overcast OVC019 16.5 13.2 81% 76.02 0.0
30 15:35 NE 11 16.09 Overcast OVC018 16.3 13.2 82% 76.02 0.0
30 15:15 E 11 16.09 Overcast OVC018 16.3 13.1 81% 76.05 0.0
30 14:55 E 13 16.09 Overcast BKN015 OVC023 16.9 13.4 80% 76 0.0
30 14:35 NE 15 16.09 Overcast OVC014 16.5 13.6 83% 76 0.0
30 14:15 NE 9 16.09 Overcast OVC015 16.2 13.3 83% 76.07 0.0
30 13:55 NE 9 16.09 Overcast OVC016 16.2 13.3 83% 76.07 0.0
30 13:35 Vrbl 9 16.09 Overcast OVC015 16.3 13.5 84% 76.02 0.0
30 13:15 NE 13 16.09 Overcast OVC015 16.2 13.5 84% 76.05 0.0
30 12:55 NE 13 16.09 Overcast OVC014 16 13.3 16.1 11.8 84% 76.1 0.0 0.2 0.2
30 12:35 NE 15 16.09 Overcast OVC014 15.8 13.2 85% 76.12 0.0 0.2
30 12:15 NE 11 16.09 Overcast OVC013 15.5 13.1 86% 76.12 0.0
30 11:55 Vrbl 11 16.09 Mostly Cloudy BKN013 15.5 13.2 86% 76.1 0.0
30 11:35 N 13 16.09 Partly Cloudy SCT016 15.5 13.3 87% 76.12 0.0
30 11:15 N 15 16.09 Overcast OVC014 14.9 13.2 90% 76.15 0.0
30 10:55 N 20 9.66 Light Rain Fog/Mist OVC011 14 12.7 92% 76.15 0.0
30 10:35 N 11 14.48 Overcast BKN013 OVC018 14.2 12.7 91% 76.12 0.0
30 10:15 Calm 16.09 Partly Cloudy SCT016 13.6 12.5 93% 76.12 0.0
30 09:55 E 9 11.27 Light Rain FEW049 13 11.9 93% 76.07 0.0
30 09:35 NE 13 9.66 Light Rain Fog/Mist FEW013 SCT025 SCT048 BKN065 13 11.7 92% 76.1 0.0
30 09:15 Vrbl 11 11.27 Light Rain FEW014 SCT043 SCT065 BKN090 13 11.4 90% 76.25 0.0
30 08:55 Vrbl 9 16.09 Mostly Cloudy BKN040 BKN100 13.1 11 87% 76.1 0.0
30 08:35 NE 6 16.09 Mostly Cloudy BKN039 12.9 10.8 87% 76.15 0.0
30 08:15 NE 9 14.48 Mostly Cloudy BKN038 12.6 10.6 88% 76.1 0.0
30 07:55 NE 11 14.48 Partly Cloudy SCT018 12.3 10.4 88% 76.12 0.0
30 07:35 NE 7 14.48 Partly Cloudy FEW018 SCT190 12.1 10.3 89% 76.1 0.0
30 07:15 N 9 14.48 Mostly Cloudy FEW037 BKN190 11.8 10.2 90% 76.07 0.0
30 06:55 NE 6 16.09 Partly Cloudy SCT036 11.8 10.2 13.6 11.8 90% 76.07 0.0
30 06:35 NE 7 16.09 Mostly Cloudy SCT036 BKN200 11.9 10.3 90% 76.05 0.0
30 06:15 NE 7 16.09 Partly Cloudy FEW036 SCT200 11.9 10.5 91% 76.05 0.0
30 05:55 NE 9 16.09 Fair CLR 12.1 10.4 89% 76.07 0.0
30 05:35 N 9 16.09 Partly Cloudy SCT035 12.2 10.4 89% 76.1 0.0
30 05:15 NE 7 16.09 Overcast OVC035 12.7 10.3 85% 76.07 0.0
30 04:55 NE 9 14.48 Mostly Cloudy BKN035 12.8 10.3 85% 76.07 0.0
30 04:35 NE 7 16.09 Partly Cloudy SCT035 12.9 10.3 84% 76.07 0.0
30 04:15 NE 7 16.09 Fair CLR 13.1 10.2 83% 76.05 0.0
30 03:55 Vrbl 9 16.09 A Few Clouds FEW034 13.3 10.3 82% 76.05 0.0
30 03:35 NE 11 16.09 Mostly Cloudy FEW025 BKN033 13.3 10.2 82% 76.05 0.0
30 03:15 NE 11 16.09 Overcast SCT025 OVC032 13.6 10.4 81% 76.1 0.0
30 02:55 Vrbl 7 16.09 Overcast FEW026 OVC033 13.1 11.1 88% 76.07 0.0
30 02:35 NE 6 16.09 Mostly Cloudy BKN033 12.8 11.2 90% 76.1 0.0
30 02:15 N 7 16.09 Fair CLR 12.5 11.1 91% 76.1 0.0
30 01:55 NE 6 14.48 Fair CLR 12.3 11 92% 76.1 0.0
30 01:35 NE 7 14.48 Fair CLR 12.4 11 91% 76.1 0.0
30 01:15 N 7 16.09 Fair CLR 12.7 11.2 91% 76.15 0.0
30 00:55 N 6 16.09 Fair CLR 13.1 11.5 16.3 13.1 90% 76.15 0.0
30 00:35 Calm 16.09 Fair CLR 13.5 11.6 88% 76.15 0.0
Date Time (cdt) Wind (kph) Vis. (km) Weather Sky Cond. Air Dwpt Max. Min. Relative Humidity Wind Chill (°C) Heat Index (°C) altimeter (cm) sea level (mb) 1 hr 3 hr 6 hr
6 hour
Temperature (ºC) Pressure Precipitation (cm)